Monday, November 20, 2017, 7:01 PM GMT
Back to Local

CYPQ, Peterborough Airport

Location: , , Canada Lat: 44.233
Local Time: 7:01 PM GMT (19:01 GMT) Lon: -78.367
Time Zone: GMT Elev: 626 ft

Show me the last for .
Show Decoded

2017-11-20 18:00 METAR CYPQ 201800Z AUTO 26013G22KT 9SM BKN025 BKN030 OVC034 02/M02 A2988 RMK
                 SLP129 =
2017-11-20 17:21 METAR CYPQ 201721Z AUTO 25009G17KT 210V280 9SM FEW026 OVC040 01/M02 A2989 RMK
                 SLP131 =
2017-11-20 17:09 METAR CYPQ 201709Z AUTO 25009G15KT 9SM -RA SCT026 OVC038 01/M02 A2989 RMK SLP131
                 =
2017-11-20 17:00 METAR CYPQ 201700Z AUTO 25011G18KT 210V270 9SM BKN026 BKN030 OVC036 01/M02 A2989
                 RMK SLP132 =
2017-11-20 16:52 METAR CYPQ 201652Z AUTO 25010G21KT 210V280 9SM BKN026 BKN037 OVC065 01/M02 A2989
                 RMK SLP132 =
2017-11-20 16:36 METAR CYPQ 201636Z AUTO 24014G23KT 9SM -RA BKN026 BKN035 OVC046 01/M02 A2988 RMK
                 SLP130 =
2017-11-20 16:35 METAR CYPQ 201635Z AUTO 24018G23KT 9SM -SN BKN026 BKN035 OVC046 01/M02 A2988 RMK
                 SLP128 =
2017-11-20 16:31 METAR CYPQ 201631Z AUTO 24008G21KT 9SM -SN BKN026 BKN035 OVC046 01/M02 A2988 RMK
                 SLP130 =
2017-11-20 16:27 METAR CYPQ 201627Z AUTO 25012G21KT 9SM -SN BKN024 BKN031 BKN042 OVC049 01/M02
                 A2988 RMK SLP130 =
2017-11-20 16:00 METAR CYPQ 201600Z AUTO 25012G20KT 9SM -SN SCT028 BKN033 BKN045 OVC055 01/M02
                 A2989 RMK SLP131 =
2017-11-20 15:40 METAR CYPQ 201540Z AUTO 25014G22KT 9SM -SN BKN026 BKN031 OVC048 01/M03 A2988 RMK
                 SLP130 =
2017-11-20 15:34 METAR CYPQ 201534Z AUTO 25014G20KT 9SM -RASN BKN026 OVC033 01/M03 A2988 RMK
                 SLP128 =
2017-11-20 15:27 METAR CYPQ 201527Z AUTO 25010G19KT 9SM -RA BKN026 OVC033 01/M03 A2988 RMK SLP130
                 =
2017-11-20 15:10 METAR CYPQ 201510Z AUTO 24011G18KT 9SM SCT026 BKN035 01/M03 A2988 RMK SLP129 =
2017-11-20 15:05 METAR CYPQ 201505Z AUTO 24012G18KT 9SM -UP FEW024 BKN032 01/M03 A2988 RMK SLP129
                 =
2017-11-20 15:00 METAR CYPQ 201500Z AUTO 24013G20KT 210V270 9SM -SN -UP BKN033 01/M03 A2988 RMK
                 SLP128 =
2017-11-20 14:59 METAR CYPQ 201459Z AUTO 24012G20KT 210V270 9SM -SN -UP BKN033 01/M03 A2988 RMK
                 SLP128 =
2017-11-20 14:54 METAR CYPQ 201454Z AUTO 24012G20KT 210V270 9SM -SN BKN036 01/M03 A2988 RMK
                 SLP128 =
2017-11-20 14:00 METAR CYPQ 201400Z AUTO 25009KT 9SM SCT075 M01/M04 A2988 RMK SLP128 =
2017-11-20 13:00 METAR CYPQ 201300Z AUTO 25008KT 9SM FEW041 M03/M05 A2988 RMK SLP130 =
2017-11-20 12:00 METAR CYPQ 201200Z AUTO 22005KT 9SM OVC060 M04/M06 A2986 RMK SLP125 =
2017-11-20 11:00 METAR CYPQ 201100Z AUTO VRB02KT 9SM OVC070 M05/M06 A2986 RMK SLP122 =
2017-11-20 10:00 METAR CYPQ 201000Z AUTO 00000KT 9SM BKN026 OVC030 M05/M08 A2986 RMK SLP124 =
2017-11-20 09:57 METAR CYPQ 200957Z AUTO 00000KT 9SM OVC026 M05/M08 A2986 RMK SLP124 =
2017-11-20 09:54 METAR CYPQ 200954Z AUTO 00000KT 9SM -SN OVC026 M05/M08 A2986 RMK SLP124 =
2017-11-20 09:00 METAR CYPQ 200900Z AUTO VRB02KT 9SM -SN BKN024 OVC029 M05/M09 A2986 RMK SLP122 =
2017-11-20 08:44 METAR CYPQ 200844Z AUTO 27002KT 9SM -SN BKN024 OVC031 M05/M09 A2986 RMK SLP123 =
2017-11-20 08:00 METAR CYPQ 200800Z AUTO 26005KT 9SM -SN OVC031 M05/M09 A2986 RMK SLP124 =
2017-11-20 07:00 METAR CYPQ 200700Z AUTO 28008KT 9SM -SN OVC037 M05/M09 A2985 RMK SLP119 =
2017-11-20 06:09 METAR CYPQ 200609Z AUTO 27009KT 9SM -SN OVC041 M05/M08 A2984 RMK SLP117 =
2017-11-20 06:00 METAR CYPQ 200600Z AUTO 28007KT 9SM OVC043 M05/M09 A2984 RMK SLP117 =
2017-11-20 05:17 METAR CYPQ 200517Z AUTO 30011G16KT 9SM OVC045 M05/M09 A2983 RMK SLP111 =
2017-11-20 05:00 METAR CYPQ 200500Z AUTO 29015G20KT 9SM -SN OVC045 M05/M09 A2982 RMK SLP108 =
2017-11-20 04:29 METAR CYPQ 200429Z AUTO 32012G24KT 9SM -SN OVC043 M05/M09 A2981 RMK SLP106 =
2017-11-20 04:00 METAR CYPQ 200400Z AUTO 31014KT 9SM OVC050 M04/M08 A2980 RMK SLP102 =
2017-11-20 03:00 METAR CYPQ 200300Z AUTO 31014G20KT 9SM OVC055 M03/M07 A2977 RMK SLP093 =
2017-11-20 02:00 METAR CYPQ 200200Z AUTO 30010G20KT 9SM FEW019 SCT037 M03/M05 A2975 RMK SLP085 =
2017-11-20 01:00 METAR CYPQ 200100Z AUTO 30007KT 270V330 9SM -SN FEW018 SCT023 BKN040 M02/M04
                 A2972 RMK SLP076 =
2017-11-20 00:47 METAR CYPQ 200047Z AUTO 28007KT 6SM -SN SCT021 BKN028 BKN037 OVC044 M02/M03
                 A2972 RMK SLP076 =
2017-11-20 00:44 METAR CYPQ 200044Z AUTO 28008KT 3SM -SN SCT021 BKN026 BKN037 OVC044 M02/M03
                 A2972 RMK SLP075 =
2017-11-20 00:35 METAR CYPQ 200035Z AUTO 29007KT 4SM -SN FEW014 BKN021 BKN036 OVC045 M02/M03
                 A2972 RMK SLP073 =
2017-11-20 00:34 METAR CYPQ 200034Z AUTO 30008KT 6SM -SN FEW014 BKN021 BKN029 OVC055 M02/M03
                 A2972 RMK SLP073 =
2017-11-20 00:30 METAR CYPQ 200030Z AUTO 29007KT 9SM -SN SCT023 BKN035 BKN044 OVC060 M02/M04
                 A2971 RMK SLP073 =
2017-11-20 00:24 METAR CYPQ 200024Z AUTO 29008KT 9SM FEW025 BKN034 BKN045 OVC055 M02/M03 A2971
                 RMK SLP073 =
2017-11-20 00:07 METAR CYPQ 200007Z AUTO 28010G15KT 6SM -SN SCT027 BKN031 BKN037 OVC060 M02/M03
                 A2971 RMK SLP072 =
2017-11-20 00:02 METAR CYPQ 200002Z AUTO 29010KT 3SM -SN BKN027 OVC038 M02/M03 A2971 RMK SLP072 =
2017-11-20 00:00 METAR CYPQ 200000Z AUTO 29011KT 3SM -SN BKN020 BKN030 OVC038 M02/M03 A2971 RMK
                 SLP073 =
2017-11-19 23:58 METAR CYPQ 192358Z AUTO 29012KT 3SM -SN BKN020 BKN032 OVC040 M02/M03 A2971 RMK
                 SLP071 =
2017-11-19 23:56 METAR CYPQ 192356Z AUTO 29009G15KT 2 1/2SM -SN BKN020 BKN030 OVC038 M02/M03
                 A2971 RMK VIS VRB 1 1/4-3 SLP071 =
2017-11-19 23:47 METAR CYPQ 192347Z AUTO 30010G17KT 2SM -SN BKN016 BKN030 OVC038 M02/M03 A2971
                 RMK SLP070 =
2017-11-19 23:42 METAR CYPQ 192342Z AUTO 30010G17KT 5SM -SN BKN016 BKN031 OVC040 M02/M03 A2971
                 RMK SLP069 =
2017-11-19 23:37 METAR CYPQ 192337Z AUTO 28009KT 9SM -SN SCT009 BKN031 OVC041 M02/M03 A2971 RMK
                 SLP069 =
2017-11-19 23:34 METAR CYPQ 192334Z AUTO 28009G17KT 6SM -SN BKN009 BKN031 OVC041 M02/M03 A2970
                 RMK SLP068 =
2017-11-19 23:32 METAR CYPQ 192332Z AUTO 28009G17KT 3SM -SN BKN009 BKN034 OVC041 M02/M03 A2970
                 RMK SLP068 =
2017-11-19 23:27 METAR CYPQ 192327Z AUTO 28011G19KT 1 1/2SM -SN BKN009 OVC038 M02/M03 A2970 RMK
                 VIS VRB 3/4-3 SLP068 =
2017-11-19 23:12 METAR CYPQ 192312Z AUTO 30013KT 1 1/4SM -SN BKN014 OVC035 M02/M03 A2970 RMK
                 SLP067 =
2017-11-19 23:11 METAR CYPQ 192311Z AUTO 31013KT 1 1/2SM -SN BKN014 OVC035 M02/M03 A2970 RMK
                 SLP067 =
2017-11-19 23:10 METAR CYPQ 192310Z AUTO 31014KT 1 3/4SM -SN SCT016 OVC033 M01/M03 A2970 RMK
                 SLP066 =
2017-11-19 23:06 METAR CYPQ 192306Z AUTO 30010KT 5SM -SN SCT020 OVC033 M01/M03 A2969 RMK SLP065 =
2017-11-19 23:00 METAR CYPQ 192300Z AUTO 30007KT 9SM -SN FEW027 BKN035 M01/M04 A2969 RMK SLP064 =
2017-11-19 22:58 METAR CYPQ 192258Z AUTO 28007KT 9SM -SN FEW027 BKN035 M01/M04 A2969 RMK SLP064 =
2017-11-19 22:00 METAR CYPQ 192200Z AUTO 30010G15KT 9SM BKN029 OVC037 M01/M04 A2967 RMK SLP057 =
2017-11-19 21:00 METAR CYPQ 192100Z AUTO 32012KT 9SM BKN025 OVC033 M00/M03 A2965 RMK SLP048 =
2017-11-19 20:00 METAR CYPQ 192000Z AUTO 31009G15KT 9SM OVC027 01/M03 A2961 RMK SLP037 =

Support USWX by starting your Amazon purchase here.